createdAt,value
2018-12-17T00:00:51.213Z,75.50
2018-12-17T00:01:57.308Z,75.20
2018-12-17T00:03:03.360Z,72.22
2018-12-17T00:04:09.442Z,80.67
2018-12-17T00:05:15.498Z,72.45
2018-12-17T00:06:21.566Z,72.93
2018-12-17T00:07:25.608Z,69.22
2018-12-17T00:08:32.098Z,71.33
2018-12-17T00:09:35.739Z,71.65
2018-12-17T00:10:39.809Z,71.55
2018-12-17T00:11:43.989Z,70.30
2018-12-17T00:12:48.053Z,68.80
2018-12-17T00:13:52.066Z,79.62
2018-12-17T00:14:56.388Z,70.10
2018-12-17T00:16:00.713Z,72.65
2018-12-17T00:17:05.264Z,71.35
2018-12-17T00:18:10.522Z,72.42
2018-12-17T00:19:14.574Z,78.63
2018-12-17T00:20:19.212Z,72.33
2018-12-17T00:21:24.385Z,70.03
2018-12-17T00:22:28.440Z,66.77
2018-12-17T00:23:32.501Z,61.13
2018-12-17T00:24:36.523Z,62.33
2018-12-17T00:25:40.559Z,61.90
2018-12-17T00:26:44.586Z,66.20
2018-12-17T00:27:48.630Z,57.30
2018-12-17T00:28:52.695Z,59.05
2018-12-17T00:29:56.769Z,63.47
2018-12-17T00:31:00.821Z,63.60
2018-12-17T00:32:04.853Z,63.38
2018-12-17T00:33:08.908Z,68.07
2018-12-17T00:34:12.997Z,61.58
2018-12-17T00:35:17.047Z,66.45
2018-12-17T00:36:21.100Z,64.92
2018-12-17T00:37:25.098Z,67.87
2018-12-17T00:38:29.144Z,62.95
2018-12-17T00:39:33.172Z,60.50
2018-12-17T00:40:37.247Z,64.32
2018-12-17T00:41:41.275Z,58.08
2018-12-17T00:42:45.299Z,66.82
2018-12-17T00:43:49.470Z,68.00
2018-12-17T00:44:53.520Z,67.47
2018-12-17T00:45:57.710Z,63.13
2018-12-17T00:47:02.901Z,62.15
2018-12-17T00:48:07.018Z,58.05
2018-12-17T00:49:11.038Z,67.50
2018-12-17T00:50:15.115Z,57.37
2018-12-17T00:51:19.197Z,66.20
2018-12-17T00:52:23.239Z,62.10
2018-12-17T00:53:27.318Z,67.23
2018-12-17T00:54:31.503Z,65.92
2018-12-17T00:55:35.682Z,62.17
2018-12-17T00:56:39.714Z,63.40
2018-12-17T00:57:43.765Z,58.68
2018-12-17T00:58:47.804Z,63.38
2018-12-17T00:59:51.855Z,70.05
2018-12-17T01:00:55.922Z,63.68
2018-12-17T01:01:59.985Z,65.75
2018-12-17T01:03:04.189Z,63.95
2018-12-17T01:04:08.237Z,59.25
2018-12-17T01:05:12.288Z,62.77
2018-12-17T01:06:16.342Z,63.42
2018-12-17T01:07:24.598Z,59.53
2018-12-17T01:08:28.649Z,53.00
2018-12-17T01:09:32.675Z,58.02
2018-12-17T01:10:36.737Z,61.18
2018-12-17T01:11:40.775Z,54.03
2018-12-17T01:12:44.851Z,60.67
2018-12-17T01:13:49.899Z,59.00
2018-12-17T01:14:54.137Z,68.07
2018-12-17T01:16:05.974Z,56.05
2018-12-17T01:17:10.171Z,57.67
2018-12-17T01:18:14.251Z,56.98
2018-12-17T01:19:18.297Z,58.13
2018-12-17T01:20:22.369Z,59.90
2018-12-17T01:21:26.528Z,55.67
2018-12-17T01:22:30.551Z,52.05
2018-12-17T01:23:34.607Z,58.75
2018-12-17T01:24:38.607Z,61.45
2018-12-17T01:25:42.627Z,57.15
2018-12-17T01:26:47.753Z,57.30
2018-12-17T01:27:52.740Z,57.43
2018-12-17T01:28:56.938Z,57.55
2018-12-17T01:30:01.018Z,64.40
2018-12-17T01:31:05.374Z,60.17
2018-12-17T01:32:09.397Z,58.10
2018-12-17T01:33:13.453Z,58.93
2018-12-17T01:34:17.525Z,51.13
2018-12-17T01:35:21.538Z,50.88
2018-12-17T01:36:25.618Z,55.60
2018-12-17T01:37:29.673Z,58.20
2018-12-17T01:38:33.715Z,53.02
2018-12-17T01:39:37.721Z,57.23
2018-12-17T01:40:41.737Z,53.68
2018-12-17T01:41:45.755Z,55.85
2018-12-17T01:42:49.773Z,57.83
2018-12-17T01:43:53.777Z,51.53
2018-12-17T01:44:57.819Z,46.65
2018-12-17T01:46:01.909Z,52.45
2018-12-17T01:47:05.981Z,52.43
2018-12-17T01:48:10.051Z,55.40
2018-12-17T01:49:14.099Z,51.45
2018-12-17T01:50:18.201Z,52.53
2018-12-17T01:51:22.289Z,50.28
2018-12-17T01:52:26.357Z,54.80
2018-12-17T01:53:30.403Z,50.38
2018-12-17T01:54:34.473Z,55.78
2018-12-17T01:55:38.515Z,52.48
2018-12-17T01:56:42.544Z,49.20
2018-12-17T01:57:46.569Z,46.40
2018-12-17T01:58:50.704Z,48.48
2018-12-17T01:59:54.756Z,46.37
2018-12-17T02:00:58.800Z,50.83
2018-12-17T02:02:02.857Z,48.55
2018-12-17T02:03:06.943Z,49.07
2018-12-17T02:04:11.024Z,52.05
2018-12-17T02:05:15.091Z,42.90
2018-12-17T02:06:19.221Z,48.42
2018-12-17T02:07:23.523Z,46.18
2018-12-17T02:08:27.546Z,45.73
2018-12-17T02:09:31.495Z,45.52
2018-12-17T02:10:35.552Z,43.40
2018-12-17T02:11:39.573Z,46.02
2018-12-17T02:12:43.575Z,42.95
2018-12-17T02:13:47.710Z,42.33
2018-12-17T02:14:51.754Z,42.10
2018-12-17T02:15:55.831Z,41.77
2018-12-17T02:16:59.843Z,45.33
2018-12-17T02:18:03.943Z,43.08
2018-12-17T02:19:08.018Z,44.53
2018-12-17T02:20:12.042Z,44.30
2018-12-17T02:21:16.067Z,45.90
2018-12-17T02:22:20.114Z,51.08
2018-12-17T02:23:24.168Z,46.30
2018-12-17T02:24:28.212Z,46.75
2018-12-17T02:25:32.253Z,42.50
2018-12-17T02:26:36.305Z,40.65
2018-12-17T02:27:40.336Z,39.55
2018-12-17T02:28:44.371Z,40.85
2018-12-17T02:29:48.434Z,41.53
2018-12-17T02:30:52.533Z,37.00
2018-12-17T02:31:56.566Z,46.35
2018-12-17T02:33:00.630Z,38.02
2018-12-17T02:34:04.777Z,36.13
2018-12-17T02:35:08.898Z,42.45
2018-12-17T02:36:13.015Z,39.67
2018-12-17T02:37:17.108Z,41.92
2018-12-17T02:38:21.157Z,38.78
2018-12-17T02:39:25.197Z,40.75
2018-12-17T02:40:29.313Z,37.13
2018-12-17T02:41:33.341Z,36.20
2018-12-17T02:42:37.364Z,38.20
2018-12-17T02:43:41.418Z,39.92
2018-12-17T02:44:45.484Z,39.13
2018-12-17T02:45:49.525Z,39.27
2018-12-17T02:46:53.568Z,36.30
2018-12-17T02:47:57.599Z,41.10
2018-12-17T02:49:01.663Z,36.90
2018-12-17T02:50:06.603Z,36.42
2018-12-17T02:51:10.686Z,34.05
2018-12-17T02:52:14.738Z,39.18
2018-12-17T02:53:18.798Z,37.15
2018-12-17T02:54:22.853Z,32.60
2018-12-17T02:55:26.898Z,34.60
2018-12-17T02:56:30.959Z,35.73
2018-12-17T02:57:35.037Z,35.35
2018-12-17T02:58:43.954Z,35.87
2018-12-17T02:59:45.113Z,33.53
2018-12-17T03:00:49.143Z,35.17
2018-12-17T03:01:53.299Z,31.70
2018-12-17T03:02:57.340Z,32.20
2018-12-17T03:04:01.417Z,34.10
2018-12-17T03:05:06.236Z,32.70
2018-12-17T03:06:10.656Z,34.58
2018-12-17T03:07:14.744Z,30.27
2018-12-17T03:08:18.775Z,36.30
2018-12-17T03:09:23.055Z,32.50
2018-12-17T03:10:27.097Z,34.57
2018-12-17T03:11:31.132Z,29.03
2018-12-17T03:12:35.161Z,29.50
2018-12-17T03:13:39.224Z,36.30
2018-12-17T03:14:43.263Z,32.73
2018-12-17T03:15:47.358Z,32.42
2018-12-17T03:16:51.407Z,32.33
2018-12-17T03:17:55.455Z,36.40
2018-12-17T03:18:59.476Z,29.95
2018-12-17T03:20:03.900Z,32.13
2018-12-17T03:21:07.948Z,36.30
2018-12-17T03:22:12.019Z,32.50
2018-12-17T03:23:16.074Z,33.87
2018-12-17T03:24:20.113Z,30.32
2018-12-17T03:25:24.134Z,29.87
2018-12-17T03:26:28.181Z,33.58
2018-12-17T03:27:32.213Z,33.60
2018-12-17T03:28:36.299Z,34.70
2018-12-17T03:29:40.462Z,31.35
2018-12-17T03:30:44.517Z,32.28
2018-12-17T03:31:48.659Z,39.37
2018-12-17T03:32:52.684Z,35.65
2018-12-17T03:33:56.771Z,34.33
2018-12-17T03:35:00.810Z,33.10
2018-12-17T03:36:04.970Z,31.33
2018-12-17T03:37:08.975Z,32.08
2018-12-17T03:38:13.027Z,32.33
2018-12-17T03:39:17.186Z,32.98
2018-12-17T03:40:21.223Z,35.23
2018-12-17T03:41:25.247Z,30.43
2018-12-17T03:42:29.250Z,31.75
2018-12-17T03:43:33.272Z,32.47
2018-12-17T03:44:37.389Z,30.92
2018-12-17T03:45:41.411Z,32.73
2018-12-17T03:46:45.428Z,33.25
2018-12-17T03:47:49.496Z,30.37
2018-12-17T03:48:53.503Z,29.67
2018-12-17T03:49:57.583Z,32.23
2018-12-17T03:51:01.618Z,33.57
2018-12-17T03:52:05.659Z,28.10
2018-12-17T03:53:09.771Z,31.02
2018-12-17T03:54:13.895Z,29.33
2018-12-17T03:55:17.962Z,30.17
2018-12-17T03:56:21.972Z,29.43
2018-12-17T03:57:26.021Z,31.77
2018-12-17T03:58:30.051Z,33.55
2018-12-17T03:59:34.120Z,32.20
2018-12-17T04:00:38.174Z,31.07
2018-12-17T04:01:42.278Z,29.30
2018-12-17T04:02:46.369Z,27.85
2018-12-17T04:03:50.407Z,32.25
2018-12-17T04:04:54.671Z,26.33
2018-12-17T04:05:58.765Z,29.40
2018-12-17T04:07:02.951Z,29.92
2018-12-17T04:08:06.972Z,32.15
2018-12-17T04:09:11.023Z,34.20
2018-12-17T04:10:15.141Z,29.80
2018-12-17T04:11:19.165Z,28.97
2018-12-17T04:12:23.283Z,32.45
2018-12-17T04:13:27.323Z,31.27
2018-12-17T04:14:31.363Z,29.23
2018-12-17T04:15:35.590Z,32.73
2018-12-17T04:16:39.658Z,30.23
2018-12-17T04:17:44.906Z,31.17
2018-12-17T04:18:48.964Z,31.93
2018-12-17T04:19:53.025Z,29.45
2018-12-17T04:20:57.083Z,34.48
2018-12-17T04:22:01.107Z,30.43
2018-12-17T04:23:05.139Z,30.08
2018-12-17T04:24:09.196Z,28.17
2018-12-17T04:25:15.231Z,29.42
2018-12-17T04:26:19.271Z,32.08
2018-12-17T04:27:23.269Z,30.85
2018-12-17T04:28:27.314Z,27.48
2018-12-17T04:29:32.411Z,28.97
2018-12-17T04:30:36.544Z,30.53
2018-12-17T04:31:40.681Z,33.35
2018-12-17T04:32:44.760Z,30.57
2018-12-17T04:33:48.873Z,28.35
2018-12-17T04:34:53.143Z,33.55
2018-12-17T04:35:57.178Z,28.67
2018-12-17T04:37:01.236Z,28.02
2018-12-17T04:38:05.281Z,25.67
2018-12-17T04:39:09.338Z,27.70
2018-12-17T04:40:13.429Z,25.85
2018-12-17T04:41:17.460Z,28.50
2018-12-17T04:42:21.490Z,27.77
2018-12-17T04:43:25.526Z,29.77
2018-12-17T04:44:29.574Z,26.05
2018-12-17T04:45:33.616Z,29.48
2018-12-17T04:46:37.688Z,29.18
2018-12-17T04:47:41.695Z,28.42
2018-12-17T04:48:45.765Z,33.30
2018-12-17T04:49:49.784Z,27.37
2018-12-17T04:50:53.828Z,31.87
2018-12-17T04:51:57.917Z,24.63
2018-12-17T04:53:01.952Z,27.35
2018-12-17T04:54:06.031Z,30.45
2018-12-17T04:55:10.099Z,30.82
2018-12-17T04:56:14.283Z,30.95
2018-12-17T04:57:18.450Z,26.77
2018-12-17T04:58:22.474Z,27.98
2018-12-17T04:59:26.479Z,26.73
2018-12-17T05:00:30.537Z,28.30
2018-12-17T05:01:34.574Z,28.10
2018-12-17T05:02:38.651Z,28.40
2018-12-17T05:03:42.715Z,29.92
2018-12-17T05:04:46.766Z,29.10
2018-12-17T05:05:50.790Z,30.62
2018-12-17T05:06:54.815Z,29.90
2018-12-17T05:07:58.900Z,28.47
2018-12-17T05:09:03.030Z,28.05
2018-12-17T05:10:09.106Z,29.85
2018-12-17T05:11:13.339Z,24.07
2018-12-17T05:12:17.356Z,28.75
2018-12-17T05:13:21.523Z,30.72
2018-12-17T05:14:25.575Z,28.40
2018-12-17T05:15:29.762Z,27.77
2018-12-17T05:16:33.904Z,28.12
2018-12-17T05:17:37.930Z,25.85
2018-12-17T05:18:41.969Z,30.05
2018-12-17T05:19:46.008Z,29.07
2018-12-17T05:20:50.103Z,26.80
2018-12-17T05:21:54.121Z,28.45
2018-12-17T05:22:58.185Z,26.30
2018-12-17T05:24:02.252Z,26.73
2018-12-17T05:25:06.742Z,29.70
2018-12-17T05:26:10.794Z,28.10
2018-12-17T05:27:14.933Z,30.12
2018-12-17T05:28:19.011Z,24.90
2018-12-17T05:29:23.080Z,29.82
2018-12-17T05:30:27.101Z,31.27
2018-12-17T05:31:31.150Z,28.32
2018-12-17T05:32:35.253Z,26.02
2018-12-17T05:33:39.414Z,28.80
2018-12-17T05:34:43.438Z,32.13
2018-12-17T05:35:47.439Z,26.20
2018-12-17T05:36:51.457Z,25.90
2018-12-17T05:37:55.547Z,31.17
2018-12-17T05:38:59.586Z,30.08
2018-12-17T05:40:04.242Z,26.50
2018-12-17T05:41:08.302Z,28.87
2018-12-17T05:42:12.368Z,30.45
2018-12-17T05:43:16.481Z,29.42
2018-12-17T05:44:20.555Z,31.12
2018-12-17T05:45:24.569Z,27.48
2018-12-17T05:46:28.601Z,29.23
2018-12-17T05:47:32.702Z,27.70
2018-12-17T05:48:36.733Z,27.48
2018-12-17T05:49:40.803Z,28.75
2018-12-17T05:50:45.073Z,28.57
2018-12-17T05:51:49.089Z,26.17
2018-12-17T05:52:53.141Z,28.60
2018-12-17T05:53:57.227Z,28.20
2018-12-17T05:55:01.276Z,25.85
2018-12-17T05:56:08.131Z,27.37
2018-12-17T05:57:12.166Z,24.80
2018-12-17T05:58:16.229Z,26.90
2018-12-17T05:59:20.288Z,28.17
2018-12-17T06:00:24.839Z,24.18
2018-12-17T06:01:28.875Z,24.70
2018-12-17T06:02:32.952Z,28.62
2018-12-17T06:03:36.989Z,27.00
2018-12-17T06:04:41.014Z,23.57
2018-12-17T06:05:45.057Z,26.10
2018-12-17T06:06:49.088Z,25.05
2018-12-17T06:07:53.125Z,25.10
2018-12-17T06:08:57.143Z,23.98
2018-12-17T06:10:01.174Z,29.30
2018-12-17T06:11:05.418Z,22.22
2018-12-17T06:12:09.553Z,25.60
2018-12-17T06:13:13.544Z,24.20
2018-12-17T06:14:17.558Z,24.15
2018-12-17T06:15:21.577Z,23.62
2018-12-17T06:16:25.717Z,22.37
2018-12-17T06:17:29.838Z,22.43
2018-12-17T06:18:33.999Z,22.75
2018-12-17T06:19:38.061Z,23.80
2018-12-17T06:20:42.091Z,22.67
2018-12-17T06:21:46.303Z,21.20
2018-12-17T06:22:50.364Z,24.77
2018-12-17T06:23:54.500Z,27.60
2018-12-17T06:24:58.577Z,20.60
2018-12-17T06:26:02.603Z,23.63
2018-12-17T06:27:06.665Z,21.12
2018-12-17T06:28:10.737Z,22.07
2018-12-17T06:29:14.832Z,22.52
2018-12-17T06:30:19.017Z,23.05
2018-12-17T06:31:23.080Z,20.32
2018-12-17T06:32:27.151Z,23.20
2018-12-17T06:33:31.264Z,22.20
2018-12-17T06:34:35.333Z,22.40
2018-12-17T06:35:40.663Z,22.55
2018-12-17T06:36:44.721Z,19.15
2018-12-17T06:37:48.813Z,20.68
2018-12-17T06:38:52.834Z,22.42
2018-12-17T06:39:56.920Z,20.27
2018-12-17T06:41:00.971Z,21.45
2018-12-17T06:42:05.345Z,20.40
2018-12-17T06:43:09.401Z,19.45
2018-12-17T06:44:13.474Z,24.10
2018-12-17T06:45:17.503Z,18.85
2018-12-17T06:46:21.587Z,20.17
2018-12-17T06:47:25.640Z,19.20
2018-12-17T06:48:29.825Z,18.55
2018-12-17T06:49:33.886Z,20.68
2018-12-17T06:50:38.001Z,20.52
2018-12-17T06:51:42.236Z,17.17
2018-12-17T06:52:46.279Z,21.20
2018-12-17T06:53:50.354Z,19.12
2018-12-17T06:54:54.861Z,17.73
2018-12-17T06:55:59.460Z,17.98
2018-12-17T06:57:04.303Z,18.42
2018-12-17T06:58:08.585Z,19.37
2018-12-17T06:59:12.668Z,19.42
2018-12-17T07:00:16.753Z,18.77
2018-12-17T07:01:20.831Z,21.12
2018-12-17T07:02:25.006Z,19.55
2018-12-17T07:03:29.068Z,20.50
2018-12-17T07:04:33.121Z,17.62
2018-12-17T07:05:37.208Z,18.30
2018-12-17T07:06:41.236Z,20.90
2018-12-17T07:07:45.400Z,22.45
2018-12-17T07:08:50.736Z,23.10
2018-12-17T07:09:56.075Z,22.87
2018-12-17T07:11:00.112Z,18.73
2018-12-17T07:12:04.135Z,19.23
2018-12-17T07:13:08.166Z,19.70
2018-12-17T07:14:12.214Z,17.77
2018-12-17T07:15:17.584Z,17.00
2018-12-17T07:16:21.615Z,17.87
2018-12-17T07:17:25.692Z,24.32
2018-12-17T07:18:29.739Z,18.73
2018-12-17T07:19:34.896Z,20.17
2018-12-17T07:20:38.969Z,19.70
2018-12-17T07:21:43.057Z,18.92
2018-12-17T07:22:47.234Z,18.57
2018-12-17T07:23:51.261Z,18.57
2018-12-17T07:24:55.365Z,17.52
2018-12-17T07:25:59.368Z,17.82
2018-12-17T07:27:04.684Z,18.75
2018-12-17T07:28:08.823Z,19.00
2018-12-17T07:29:12.937Z,16.10
2018-12-17T07:30:17.335Z,19.57
2018-12-17T07:31:21.345Z,20.40
2018-12-17T07:32:25.428Z,19.07
2018-12-17T07:33:29.445Z,18.65
2018-12-17T07:34:33.730Z,20.43
2018-12-17T07:35:37.749Z,19.07
2018-12-17T07:36:41.860Z,20.73
2018-12-17T07:37:45.897Z,16.40
2018-12-17T07:38:49.888Z,20.00
2018-12-17T07:39:53.955Z,20.60
2018-12-17T07:40:58.119Z,16.15
2018-12-17T07:42:02.132Z,19.15
2018-12-17T07:43:06.145Z,19.13
2018-12-17T07:44:10.172Z,17.85
2018-12-17T07:45:14.167Z,16.75
2018-12-17T07:46:18.337Z,15.35
2018-12-17T07:47:22.362Z,17.85
2018-12-17T07:48:26.409Z,17.63
2018-12-17T07:49:30.397Z,16.57
2018-12-17T07:50:34.397Z,18.55
2018-12-17T07:51:38.447Z,16.25
2018-12-17T07:52:42.469Z,17.15
2018-12-17T07:53:46.511Z,18.27
2018-12-17T07:54:50.528Z,52.60
2018-12-17T07:55:54.560Z,21.57
2018-12-17T07:56:58.883Z,30.23
2018-12-17T07:58:02.963Z,17.10
2018-12-17T07:59:06.968Z,16.17
2018-12-17T08:00:11.930Z,14.63
2018-12-17T08:01:16.049Z,19.15
2018-12-17T08:02:20.099Z,17.33
2018-12-17T08:03:24.126Z,16.33
2018-12-17T08:04:28.232Z,17.73
2018-12-17T08:05:32.296Z,20.65
2018-12-17T08:06:36.643Z,16.57
2018-12-17T08:07:40.619Z,15.63
2018-12-17T08:08:44.648Z,16.73
2018-12-17T08:09:48.654Z,15.58
2018-12-17T08:10:52.679Z,16.60
2018-12-17T08:11:56.848Z,17.47
2018-12-17T08:13:01.185Z,19.23
2018-12-17T08:14:05.217Z,14.83
2018-12-17T08:15:09.352Z,18.07
2018-12-17T08:16:13.484Z,19.00
2018-12-17T08:17:17.533Z,20.62
2018-12-17T08:18:23.355Z,15.40
2018-12-17T08:19:28.986Z,17.40
2018-12-17T08:20:33.239Z,20.77
2018-12-17T08:21:37.741Z,17.43
2018-12-17T08:22:42.510Z,17.67
2018-12-17T08:23:46.608Z,17.77
2018-12-17T08:24:50.967Z,14.73
2018-12-17T08:25:55.230Z,61.48
2018-12-17T08:26:59.290Z,17.13
2018-12-17T08:28:03.474Z,22.30
2018-12-17T08:29:07.516Z,16.07
2018-12-17T08:30:11.599Z,19.00
2018-12-17T08:31:15.799Z,16.77
2018-12-17T08:32:19.855Z,15.95
2018-12-17T08:33:23.921Z,14.98
2018-12-17T08:34:29.135Z,19.90
2018-12-17T08:35:33.122Z,20.10
2018-12-17T08:36:37.182Z,16.05
2018-12-17T08:37:41.274Z,16.63
2018-12-17T08:38:45.366Z,15.90
2018-12-17T08:39:49.401Z,21.47
2018-12-17T08:40:53.586Z,19.77
2018-12-17T08:41:57.624Z,17.27
2018-12-17T08:43:01.657Z,16.00
2018-12-17T08:44:05.756Z,16.25
2018-12-17T08:45:09.850Z,18.35
2018-12-17T08:46:13.925Z,16.30
2018-12-17T08:47:17.932Z,14.73
2018-12-17T08:48:21.948Z,18.40
2018-12-17T08:49:25.996Z,18.23
2018-12-17T08:50:30.044Z,19.00
2018-12-17T08:51:34.245Z,16.80
2018-12-17T08:52:46.753Z,16.80
2018-12-17T08:53:58.716Z,16.33
2018-12-17T08:55:02.832Z,19.37
2018-12-17T08:56:06.940Z,16.37
2018-12-17T08:57:11.009Z,16.70
2018-12-17T08:58:15.334Z,17.80
2018-12-17T08:59:19.522Z,18.93
2018-12-17T09:00:23.621Z,18.27
2018-12-17T09:01:27.961Z,16.02
2018-12-17T09:02:32.129Z,16.70
2018-12-17T09:03:36.341Z,18.27
2018-12-17T09:04:43.648Z,17.57
2018-12-17T09:06:00.672Z,14.80
2018-12-17T09:07:08.483Z,16.27
2018-12-17T09:08:16.664Z,15.30
2018-12-17T09:09:20.850Z,16.00
2018-12-17T09:10:24.917Z,13.08
2018-12-17T09:11:29.061Z,14.23
2018-12-17T09:12:33.179Z,17.23
2018-12-17T09:13:37.365Z,15.88
2018-12-17T09:14:41.485Z,16.57
2018-12-17T09:15:45.578Z,15.00
2018-12-17T09:16:56.745Z,15.33
2018-12-17T09:18:00.843Z,16.47
2018-12-17T09:19:04.937Z,16.50
2018-12-17T09:20:09.468Z,15.23
2018-12-17T09:21:13.709Z,15.70
2018-12-17T09:22:17.837Z,16.80
2018-12-17T09:23:21.946Z,17.50
2018-12-17T09:24:41.788Z,16.27
2018-12-17T09:25:45.905Z,16.65
2018-12-17T09:26:50.015Z,14.47
2018-12-17T09:27:54.118Z,17.10
2018-12-17T09:28:58.250Z,15.63
2018-12-17T09:30:02.624Z,14.53
2018-12-17T09:31:08.776Z,15.23
2018-12-17T09:32:13.053Z,18.43
2018-12-17T09:34:46.186Z,14.13
2018-12-17T09:35:51.486Z,16.97
2018-12-17T09:36:58.835Z,16.40
2018-12-17T09:38:05.276Z,16.40
2018-12-17T09:39:21.991Z,16.37
2018-12-17T09:40:32.337Z,13.72
2018-12-17T09:43:17.135Z,14.78
2018-12-17T09:44:33.317Z,13.43
2018-12-17T09:45:43.307Z,15.13
2018-12-17T09:46:47.385Z,14.67
2018-12-17T09:47:51.476Z,14.33
2018-12-17T09:48:56.660Z,14.03
2018-12-17T09:50:03.515Z,17.37
2018-12-17T09:51:11.326Z,14.55
2018-12-17T09:52:21.517Z,15.13
2018-12-17T09:53:29.863Z,20.10
2018-12-17T09:54:50.275Z,18.67
2018-12-17T09:56:01.355Z,15.23
2018-12-17T09:57:06.902Z,17.02
2018-12-17T09:58:16.989Z,14.33
2018-12-17T09:59:22.216Z,14.87
2018-12-17T10:00:26.374Z,16.13
2018-12-17T10:01:30.515Z,12.47
2018-12-17T10:02:38.035Z,15.30
2018-12-17T10:03:54.240Z,14.77
2018-12-17T10:05:03.412Z,15.53
2018-12-17T10:06:08.020Z,15.43
2018-12-17T10:07:34.392Z,12.90
2018-12-17T10:08:39.033Z,13.30
2018-12-17T10:09:43.074Z,16.63
2018-12-17T10:10:47.198Z,13.47
2018-12-17T10:14:10.705Z,16.23
2018-12-17T10:15:21.779Z,16.90
2018-12-17T10:16:25.863Z,15.33
2018-12-17T10:17:32.794Z,19.20
2018-12-17T10:18:39.753Z,17.13
2018-12-17T10:19:44.713Z,18.12
2018-12-17T10:20:53.954Z,16.13
2018-12-17T10:22:01.573Z,16.20
2018-12-17T10:23:10.050Z,13.07
2018-12-17T10:24:15.539Z,16.50
2018-12-17T10:25:23.966Z,14.30
2018-12-17T10:26:39.755Z,13.77
2018-12-17T10:27:46.145Z,13.90
2018-12-17T10:28:57.658Z,21.97
2018-12-17T10:30:32.206Z,14.00
2018-12-17T10:31:32.734Z,15.40
2018-12-17T10:33:04.957Z,14.83
2018-12-17T10:34:09.845Z,17.20
2018-12-17T10:35:15.378Z,14.73
2018-12-17T10:36:20.123Z,13.67
2018-12-17T10:37:26.148Z,16.07
2018-12-17T10:38:30.399Z,14.73
2018-12-17T10:39:34.529Z,13.13
2018-12-17T10:40:39.406Z,13.03
2018-12-17T10:41:43.587Z,16.23
2018-12-17T10:43:10.078Z,13.32
2018-12-17T10:44:22.718Z,12.37
2018-12-17T10:47:10.115Z,18.55
2018-12-17T10:48:18.333Z,17.40
2018-12-17T10:49:41.081Z,15.00
2018-12-17T10:51:06.452Z,14.10
2018-12-17T10:52:20.593Z,14.90
2018-12-17T10:53:45.507Z,13.13
2018-12-17T10:54:57.042Z,14.77
2018-12-17T10:56:41.861Z,12.33
2018-12-17T10:57:46.062Z,14.40
2018-12-17T10:58:50.876Z,14.43
2018-12-17T11:00:16.107Z,14.60
2018-12-17T11:02:38.316Z,16.62
2018-12-17T11:05:19.587Z,15.00
2018-12-17T11:08:11.008Z,17.32
2018-12-17T11:10:52.433Z,14.90
2018-12-17T11:12:13.864Z,17.63
2018-12-17T11:13:40.155Z,18.33
2018-12-17T11:14:51.486Z,20.12
2018-12-17T11:16:09.631Z,23.43
2018-12-17T11:18:49.541Z,19.55
2018-12-17T11:19:53.984Z,17.32
2018-12-17T11:20:58.243Z,19.97
2018-12-17T11:23:20.348Z,19.13
2018-12-17T11:24:24.516Z,27.87
2018-12-17T11:25:29.580Z,121.82
2018-12-17T11:29:50.357Z,20.17
2018-12-17T11:30:54.562Z,19.87
2018-12-17T11:32:15.570Z,19.50
2018-12-17T11:33:21.005Z,24.57
2018-12-17T11:34:27.250Z,37.80
2018-12-17T11:36:52.659Z,35.73
2018-12-17T11:37:58.515Z,26.25
2018-12-17T11:39:06.875Z,25.23
2018-12-17T11:40:13.027Z,21.63
2018-12-17T11:41:17.367Z,18.90
2018-12-17T11:42:21.440Z,18.43
2018-12-17T11:43:25.547Z,17.57
2018-12-17T11:44:29.586Z,19.27
2018-12-17T11:45:33.735Z,20.33
2018-12-17T11:46:37.789Z,21.37
2018-12-17T11:47:41.943Z,21.43
2018-12-17T11:48:47.273Z,18.17
2018-12-17T11:49:51.345Z,20.63
2018-12-17T11:50:55.423Z,22.67
2018-12-17T11:52:01.194Z,19.27
2018-12-17T11:53:06.506Z,20.13
2018-12-17T11:54:10.709Z,19.20
2018-12-17T11:55:27.595Z,17.93
2018-12-17T12:03:10.259Z,19.20
2018-12-17T12:04:20.466Z,20.73
2018-12-17T12:05:24.536Z,22.98
2018-12-17T12:06:28.615Z,25.23
2018-12-17T12:07:32.764Z,22.80
2018-12-17T12:08:36.841Z,20.43
2018-12-17T12:09:40.873Z,22.33
2018-12-17T12:10:45.019Z,23.93
2018-12-17T12:11:49.131Z,22.20
2018-12-17T12:12:53.193Z,22.83
2018-12-17T12:13:57.331Z,26.10
2018-12-17T12:15:01.479Z,24.77
2018-12-17T12:16:06.919Z,25.57
2018-12-17T12:17:13.356Z,22.53
2018-12-17T12:18:17.448Z,27.03
2018-12-17T12:19:21.630Z,24.33
2018-12-17T12:22:26.319Z,28.27
2018-12-17T12:23:37.502Z,25.47
2018-12-17T12:24:42.093Z,32.95
2018-12-17T12:25:51.877Z,33.90
2018-12-17T12:27:20.773Z,30.13
2018-12-17T12:28:28.808Z,29.83
2018-12-17T12:29:41.333Z,40.10
2018-12-17T12:31:00.330Z,32.67
2018-12-17T12:32:10.687Z,29.97
2018-12-17T12:33:23.837Z,29.73
2018-12-17T12:35:37.852Z,31.57
2018-12-17T12:38:38.731Z,35.87
2018-12-17T12:39:42.938Z,33.33
2018-12-17T12:41:00.364Z,33.13
2018-12-17T12:42:05.619Z,38.23
2018-12-17T12:43:09.752Z,36.83
2018-12-17T12:45:58.242Z,28.83
2018-12-17T12:47:03.414Z,49.07
2018-12-17T12:49:21.302Z,32.37
2018-12-17T12:50:26.081Z,37.90
2018-12-17T12:51:32.798Z,34.43
2018-12-17T12:52:39.818Z,31.20
2018-12-17T12:53:44.088Z,33.50
2018-12-17T12:54:48.519Z,39.37
2018-12-17T12:55:53.598Z,36.63
2018-12-17T12:56:57.835Z,35.20
2018-12-17T12:58:03.763Z,36.33
2018-12-17T12:59:09.627Z,40.83
2018-12-17T13:00:14.845Z,38.63
2018-12-17T13:01:19.070Z,45.40
2018-12-17T13:02:23.460Z,37.23
2018-12-17T13:03:27.772Z,39.80
2018-12-17T13:04:32.225Z,34.83
2018-12-17T13:05:40.672Z,36.27
2018-12-17T13:07:00.848Z,37.50
2018-12-17T13:08:05.252Z,36.93
2018-12-17T13:09:09.347Z,40.33
2018-12-17T13:10:15.692Z,37.70
2018-12-17T13:11:19.797Z,37.13
2018-12-17T13:12:24.173Z,36.67
2018-12-17T13:13:28.265Z,44.53
2018-12-17T13:14:32.968Z,40.43
2018-12-17T13:15:57.043Z,36.83
2018-12-17T13:18:34.292Z,42.63
2018-12-17T13:19:38.510Z,40.33
2018-12-17T13:20:42.562Z,45.43
2018-12-17T13:21:46.764Z,38.73
2018-12-17T13:22:50.907Z,38.03
2018-12-17T13:23:55.070Z,38.37
2018-12-17T13:24:59.151Z,40.90
2018-12-17T13:26:03.393Z,44.90
2018-12-17T13:27:07.629Z,42.37
2018-12-17T13:28:11.688Z,47.60
2018-12-17T13:29:15.747Z,42.87
2018-12-17T13:30:19.836Z,48.03
2018-12-17T13:31:23.933Z,45.90
2018-12-17T13:32:27.992Z,44.10
2018-12-17T13:33:32.046Z,40.90
2018-12-17T13:34:36.077Z,40.57
2018-12-17T13:35:40.166Z,41.10
2018-12-17T13:36:44.249Z,42.33
2018-12-17T13:37:48.371Z,41.07
2018-12-17T13:38:52.467Z,39.40
2018-12-17T13:39:56.540Z,46.93
2018-12-17T13:41:00.578Z,42.77
2018-12-17T13:42:04.683Z,42.10
2018-12-17T13:43:12.240Z,42.47
2018-12-17T13:44:16.413Z,41.77
2018-12-17T13:45:20.639Z,40.17
2018-12-17T13:46:24.774Z,43.73
2018-12-17T13:47:29.517Z,42.00
2018-12-17T13:48:33.624Z,41.00
2018-12-17T13:49:37.667Z,48.40
2018-12-17T13:50:41.812Z,46.27
2018-12-17T13:51:51.061Z,42.80
2018-12-17T13:52:59.366Z,45.87
2018-12-17T13:54:04.932Z,46.47
2018-12-17T13:55:09.316Z,43.00
2018-12-17T13:56:13.563Z,40.73
2018-12-17T13:57:17.578Z,46.07
2018-12-17T13:58:21.820Z,41.60
2018-12-17T13:59:25.870Z,44.30
2018-12-17T14:00:30.001Z,40.00
2018-12-17T14:01:34.109Z,39.77
2018-12-17T14:02:38.342Z,41.20
2018-12-17T14:03:42.510Z,46.77
2018-12-17T14:04:46.585Z,44.13
2018-12-17T14:05:50.691Z,43.13
2018-12-17T14:06:54.821Z,49.20
2018-12-17T14:08:13.201Z,39.67
2018-12-17T14:09:18.622Z,42.90
2018-12-17T14:10:28.648Z,41.60
2018-12-17T14:11:32.819Z,41.13
2018-12-17T14:12:36.888Z,38.83
2018-12-17T14:13:40.911Z,39.07
2018-12-17T14:14:44.911Z,39.57
2018-12-17T14:15:51.184Z,41.53
2018-12-17T14:17:00.538Z,40.13
2018-12-17T14:18:09.844Z,41.17
2018-12-17T14:19:19.868Z,41.93
2018-12-17T14:20:29.130Z,41.97
2018-12-17T14:21:38.590Z,41.60
2018-12-17T14:22:42.797Z,43.87
2018-12-17T14:23:46.817Z,40.63
2018-12-17T14:24:50.887Z,42.20
2018-12-17T14:25:55.051Z,38.83
2018-12-17T14:26:59.101Z,39.80
2018-12-17T14:28:03.137Z,36.97
2018-12-17T14:29:07.185Z,38.27
2018-12-17T14:30:11.513Z,40.07
2018-12-17T14:31:15.658Z,41.03
2018-12-17T14:32:19.750Z,36.40
2018-12-17T14:33:23.882Z,43.53
2018-12-17T14:34:27.996Z,41.40
2018-12-17T14:35:32.205Z,40.77
2018-12-17T14:36:36.326Z,42.20
2018-12-17T14:37:45.781Z,39.23